Time;durP1;ratioP1;P1;durP2;ratioP2;P2;SDS_P1;SDS_P2;PMS_P1;PMS_P2;Temp;Humidity;BMP_temperature;BMP_pressure;BME280_temperature;BME280_humidity;BME280_pressure;Samples;Min_cycle;Max_cycle;Signal;HPM_P1;HPM_P2
2022/11/23 00:01:12;;;;;;;7.93;1.00;;;;;;;;;;5012118;28;20127;-64
2022/11/23 00:03:39;;;;;;;3.88;0.90;;;;;;;;;;5013796;28;20844;-64
2022/11/23 00:06:06;;;;;;;2.65;0.65;;;;;;;;;;5012203;28;20133;-65
2022/11/23 00:08:32;;;;;;;5.20;0.90;;;;;;;;;;5013079;28;20149;-63
2022/11/23 00:10:59;;;;;;;6.30;0.80;;;;;;;;;;5011746;28;20073;-64
2022/11/23 00:13:26;;;;;;;4.00;0.80;;;;;;;;;;5015879;28;20414;-64
2022/11/23 00:15:52;;;;;;;5.45;1.25;;;;;;;;;;5013096;28;20148;-63
2022/11/23 00:18:19;;;;;;;3.10;1.10;;;;;;;;;;5010248;28;20041;-65
2022/11/23 00:20:46;;;;;;;4.13;1.48;;;;;;;;;;5011888;28;20106;-62
2022/11/23 00:23:12;;;;;;;3.80;1.10;;;;;;;;;;5012901;28;20132;-64
2022/11/23 00:25:39;;;;;;;4.47;1.05;;;;;;;;;;5011307;28;20143;-65
2022/11/23 00:28:06;;;;;;;3.17;1.10;;;;;;;;;;5011891;28;20064;-65
2022/11/23 00:30:33;;;;;;;2.65;0.98;;;;;;;;;;5013832;28;20103;-64
2022/11/23 00:33:00;;;;;;;8.25;2.45;;;;;;;;;;5015481;28;20052;-65
2022/11/23 00:35:27;;;;;;;6.43;1.60;;;;;;;;;;5012489;28;20067;-64
2022/11/23 00:37:53;;;;;;;4.60;1.30;;;;;;;;;;5012156;28;20098;-62
2022/11/23 00:40:20;;;;;;;12.00;1.27;;;;;;;;;;5012781;28;20136;-63
2022/11/23 00:42:46;;;;;;;5.35;1.23;;;;;;;;;;5014058;28;20474;-62
2022/11/23 00:45:13;;;;;;;3.58;1.02;;;;;;;;;;5013606;28;20628;-64
2022/11/23 00:47:39;;;;;;;3.70;1.00;;;;;;;;;;5011189;28;20049;-64
2022/11/23 00:50:06;;;;;;;3.17;0.80;;;;;;;;;;5013191;28;20694;-63
2022/11/23 00:52:33;;;;;;;3.40;1.00;;;;;;;;;;5011539;28;20041;-63
2022/11/23 00:54:59;;;;;;;5.43;1.30;;;;;;;;;;5011583;28;20033;-62
2022/11/23 00:57:26;;;;;;;11.02;1.20;;;;;;;;;;5009100;28;20140;-63
2022/11/23 00:59:52;;;;;;;3.72;1.05;;;;;;;;;;5011802;28;20147;-62
2022/11/23 01:02:19;;;;;;;4.75;1.70;;;;;;;;;;5010716;28;20053;-65
2022/11/23 01:04:46;;;;;;;6.50;1.40;;;;;;;;;;5010149;28;20477;-61
2022/11/23 01:07:12;;;;;;;5.88;1.40;;;;;;;;;;5008969;28;20037;-61
2022/11/23 01:09:39;;;;;;;5.22;1.73;;;;;;;;;;5013202;28;20034;-65
2022/11/23 01:12:05;;;;;;;10.98;1.75;;;;;;;;;;5011182;28;20067;-64
2022/11/23 01:14:32;;;;;;;5.28;2.00;;;;;;;;;;5010792;28;20045;-63
2022/11/23 01:16:58;;;;;;;13.80;2.45;;;;;;;;;;5013228;28;20061;-63
2022/11/23 01:19:25;;;;;;;7.60;2.00;;;;;;;;;;5010174;28;20064;-62
2022/11/23 01:21:52;;;;;;;6.03;1.67;;;;;;;;;;5012606;28;20041;-64
2022/11/23 01:24:20;;;;;;;6.35;1.95;;;;;;;;;;5011234;28;20068;-64
2022/11/23 01:26:53;;;;;;;7.50;1.83;;;;;;;;;;5021349;28;20049;-64
2022/11/23 01:29:20;;;;;;;6.82;1.77;;;;;;;;;;5031777;28;20068;-68
2022/11/23 01:31:47;;;;;;;5.90;1.83;;;;;;;;;;5030977;28;20036;-61
2022/11/23 01:34:14;;;;;;;5.57;1.90;;;;;;;;;;5032524;28;20068;-64
2022/11/23 01:36:41;;;;;;;9.13;2.50;;;;;;;;;;5031396;28;20041;-62
2022/11/23 01:39:08;;;;;;;7.47;2.03;;;;;;;;;;5034172;28;20033;-64
2022/11/23 01:41:36;;;;;;;8.63;1.90;;;;;;;;;;5032511;28;20037;-63
2022/11/23 01:44:20;;;;;;;9.65;2.00;;;;;;;;;;5034544;28;20041;-65
2022/11/23 01:46:47;;;;;;;8.13;2.00;;;;;;;;;;5010858;28;20455;-63
2022/11/23 01:49:14;;;;;;;7.28;1.92;;;;;;;;;;5015501;28;20038;-62
2022/11/23 01:51:43;;;;;;;5.25;2.20;;;;;;;;;;5034501;28;20557;-61
2022/11/23 01:54:19;;;;;;;7.00;2.20;;;;;;;;;;5024046;28;20114;-63
2022/11/23 01:56:53;;;;;;;7.10;2.25;;;;;;;;;;5020419;28;20050;-58
2022/11/23 01:59:20;;;;;;;10.98;2.20;;;;;;;;;;5022254;28;20114;-66
2022/11/23 02:01:46;;;;;;;8.10;2.80;;;;;;;;;;5015198;28;20045;-64
2022/11/23 02:04:16;;;;;;;7.95;2.38;;;;;;;;;;5016008;28;20038;-68
2022/11/23 02:06:46;;;;;;;6.20;2.28;;;;;;;;;;5016716;28;20065;-61
2022/11/23 02:09:14;;;;;;;6.80;2.30;;;;;;;;;;5013885;28;20049;-63
2022/11/23 02:11:40;;;;;;;9.13;1.88;;;;;;;;;;5015056;28;20052;-61
2022/11/23 02:14:07;;;;;;;10.07;2.10;;;;;;;;;;5013419;28;20741;-64
2022/11/23 02:16:33;;;;;;;8.05;1.90;;;;;;;;;;5012118;28;20042;-64
2022/11/23 02:19:00;;;;;;;8.88;1.92;;;;;;;;;;5015737;28;20475;-63
2022/11/23 02:21:27;;;;;;;7.80;1.80;;;;;;;;;;5014345;28;20033;-63
2022/11/23 02:24:00;;;;;;;5.60;1.80;;;;;;;;;;5013863;28;20111;-63
2022/11/23 02:26:28;;;;;;;5.73;2.00;;;;;;;;;;5013059;28;20110;-63
2022/11/23 02:28:58;;;;;;;4.82;1.60;;;;;;;;;;5016559;28;20304;-65
2022/11/23 02:31:24;;;;;;;6.82;1.88;;;;;;;;;;5014607;28;20627;-64
2022/11/23 02:33:51;;;;;;;6.72;2.00;;;;;;;;;;5015637;28;20033;-62
2022/11/23 02:36:35;;;;;;;10.05;2.30;;;;;;;;;;5013044;28;20136;-62
2022/11/23 02:39:01;;;;;;;;;;;;;;;;;;5016460;28;20045;-65
2022/11/23 02:41:27;;;;;;;10.43;2.10;;;;;;;;;;5015404;28;20352;-61
2022/11/23 02:43:56;;;;;;;6.55;1.75;;;;;;;;;;5012134;28;20046;-60
2022/11/23 02:46:23;;;;;;;6.88;1.50;;;;;;;;;;5029679;28;20044;-62
2022/11/23 02:48:52;;;;;;;8.10;1.50;;;;;;;;;;5024153;28;20036;-62
2022/11/23 02:51:19;;;;;;;8.50;1.75;;;;;;;;;;5012887;28;20129;-64
2022/11/23 02:53:45;;;;;;;5.78;2.13;;;;;;;;;;5013392;28;20041;-60
2022/11/23 02:56:12;;;;;;;7.72;1.80;;;;;;;;;;5018379;28;20045;-62
2022/11/23 02:58:38;;;;;;;6.32;1.90;;;;;;;;;;5012624;28;20038;-65
2022/11/23 03:01:05;;;;;;;7.53;2.38;;;;;;;;;;5014992;28;20506;-63
2022/11/23 03:03:31;;;;;;;8.07;1.90;;;;;;;;;;5015327;28;20163;-61
2022/11/23 03:05:58;;;;;;;5.28;2.05;;;;;;;;;;5013996;28;20973;-64
2022/11/23 03:08:24;;;;;;;7.47;1.75;;;;;;;;;;5014127;28;21641;-62
2022/11/23 03:10:51;;;;;;;9.00;2.50;;;;;;;;;;5011641;28;20152;-60
2022/11/23 03:13:18;;;;;;;8.50;2.83;;;;;;;;;;5013403;28;20040;-62
2022/11/23 03:15:44;;;;;;;8.35;2.15;;;;;;;;;;5028092;28;20575;-61
2022/11/23 03:18:11;;;;;;;12.02;1.92;;;;;;;;;;5012616;28;20060;-61
2022/11/23 03:20:38;;;;;;;6.70;2.30;;;;;;;;;;5013369;28;20041;-63
2022/11/23 03:23:04;;;;;;;8.63;2.45;;;;;;;;;;5012369;28;20098;-63
2022/11/23 03:25:31;;;;;;;6.78;2.67;;;;;;;;;;5014535;28;20139;-62
2022/11/23 03:27:57;;;;;;;6.25;2.17;;;;;;;;;;5015617;28;20544;-61
2022/11/23 03:30:24;;;;;;;9.05;2.83;;;;;;;;;;5027967;28;20620;-62
2022/11/23 03:32:51;;;;;;;8.68;3.28;;;;;;;;;;5013498;28;20060;-61
2022/11/23 03:35:17;;;;;;;8.70;3.22;;;;;;;;;;5013452;28;20037;-64
2022/11/23 03:37:44;;;;;;;7.28;2.95;;;;;;;;;;5028692;28;20899;-62
2022/11/23 03:40:11;;;;;;;7.10;2.92;;;;;;;;;;5013175;28;20095;-61
2022/11/23 03:42:39;;;;;;;8.25;3.10;;;;;;;;;;5025141;28;20047;-62
2022/11/23 03:45:06;;;;;;;11.52;3.40;;;;;;;;;;5013343;28;20555;-62
2022/11/23 03:47:32;;;;;;;11.57;3.38;;;;;;;;;;5016410;28;20048;-60
2022/11/23 03:49:59;;;;;;;10.77;3.20;;;;;;;;;;5013480;28;20058;-62
2022/11/23 03:52:26;;;;;;;6.72;2.88;;;;;;;;;;5020829;28;20041;-62
2022/11/23 03:54:52;;;;;;;6.95;3.10;;;;;;;;;;5011701;28;20117;-60
2022/11/23 03:57:19;;;;;;;7.22;3.13;;;;;;;;;;5014110;28;20073;-63
2022/11/23 03:59:45;;;;;;;10.85;4.53;;;;;;;;;;5026912;28;21862;-60
2022/11/23 04:02:12;;;;;;;9.18;3.67;;;;;;;;;;5013821;28;20045;-60
2022/11/23 04:04:38;;;;;;;8.10;3.53;;;;;;;;;;5030996;28;20033;-61
2022/11/23 04:07:05;;;;;;;8.95;3.67;;;;;;;;;;5012896;28;20041;-63
2022/11/23 04:09:32;;;;;;;9.27;3.05;;;;;;;;;;5010829;28;20044;-62
2022/11/23 04:11:58;;;;;;;11.05;3.53;;;;;;;;;;5013380;28;20041;-63
2022/11/23 04:14:25;;;;;;;8.60;2.85;;;;;;;;;;5021689;28;20729;-61
2022/11/23 04:16:51;;;;;;;7.28;3.20;;;;;;;;;;5028745;28;20041;-60
2022/11/23 04:19:18;;;;;;;6.40;2.92;;;;;;;;;;5015586;28;20073;-64
2022/11/23 04:21:45;;;;;;;8.90;2.75;;;;;;;;;;5012792;28;20033;-65
2022/11/23 04:24:11;;;;;;;5.82;2.80;;;;;;;;;;5014977;28;20139;-61
2022/11/23 04:26:39;;;;;;;6.63;2.25;;;;;;;;;;5013323;28;20037;-61
2022/11/23 04:29:05;;;;;;;5.45;1.77;;;;;;;;;;5012547;28;20144;-63
2022/11/23 04:31:32;;;;;;;4.05;1.20;;;;;;;;;;5010168;28;20104;-62
2022/11/23 04:33:59;;;;;;;6.95;1.40;;;;;;;;;;5012586;28;20037;-65
2022/11/23 04:36:26;;;;;;;3.60;1.15;;;;;;;;;;5011137;28;20064;-59
2022/11/23 04:38:53;;;;;;;5.20;1.20;;;;;;;;;;5013649;28;20052;-60
2022/11/23 04:41:19;;;;;;;3.72;1.20;;;;;;;;;;5012712;28;20041;-63
2022/11/23 04:43:50;;;;;;;3.15;0.80;;;;;;;;;;5011306;28;20037;-62
2022/11/23 04:46:17;;;;;;;2.67;0.95;;;;;;;;;;5012244;28;20037;-63
2022/11/23 04:48:44;;;;;;;4.88;0.90;;;;;;;;;;5011042;28;20038;-62
2022/11/23 04:51:10;;;;;;;2.78;0.68;;;;;;;;;;5010648;28;20077;-59
2022/11/23 04:53:37;;;;;;;4.40;0.90;;;;;;;;;;5011281;28;20128;-62
2022/11/23 04:56:03;;;;;;;2.53;0.80;;;;;;;;;;5010822;28;20057;-63
2022/11/23 04:58:30;;;;;;;1.15;0.60;;;;;;;;;;5011732;28;20532;-61
2022/11/23 05:00:57;;;;;;;2.22;0.77;;;;;;;;;;5011321;28;20197;-63
2022/11/23 05:03:24;;;;;;;2.92;0.80;;;;;;;;;;5009981;28;20060;-62
2022/11/23 05:05:51;;;;;;;2.08;0.65;;;;;;;;;;5014396;28;20038;-62
2022/11/23 05:08:17;;;;;;;2.92;0.93;;;;;;;;;;5011164;28;20038;-64
2022/11/23 05:10:44;;;;;;;2.72;0.70;;;;;;;;;;5028750;28;20530;-63
2022/11/23 05:13:10;;;;;;;1.88;0.70;;;;;;;;;;5033594;28;20033;-64
2022/11/23 05:15:37;;;;;;;2.35;0.80;;;;;;;;;;5030540;28;20049;-63
2022/11/23 05:18:05;;;;;;;1.73;0.55;;;;;;;;;;5029646;28;20091;-64
2022/11/23 05:20:32;;;;;;;4.15;0.70;;;;;;;;;;5031276;28;20035;-62
2022/11/23 05:22:59;;;;;;;2.33;0.60;;;;;;;;;;5031363;28;20072;-62
2022/11/23 05:25:25;;;;;;;2.55;0.70;;;;;;;;;;5046776;28;20151;-62
2022/11/23 05:27:52;;;;;;;3.03;0.70;;;;;;;;;;5034008;28;20122;-63
2022/11/23 05:30:19;;;;;;;3.95;0.75;;;;;;;;;;5051252;28;20079;-62
2022/11/23 05:32:46;;;;;;;2.00;0.68;;;;;;;;;;5033565;28;20487;-62
2022/11/23 05:35:13;;;;;;;3.33;0.80;;;;;;;;;;5034925;28;20711;-63
2022/11/23 05:37:40;;;;;;;2.25;0.60;;;;;;;;;;5033451;28;20110;-62
2022/11/23 05:40:08;;;;;;;1.90;0.60;;;;;;;;;;5043144;28;20108;-62
2022/11/23 05:42:34;;;;;;;2.35;0.70;;;;;;;;;;5034365;28;20037;-62
2022/11/23 05:45:01;;;;;;;2.72;0.80;;;;;;;;;;5032633;28;20104;-66
2022/11/23 05:47:28;;;;;;;2.03;0.60;;;;;;;;;;5047310;28;20140;-63
2022/11/23 05:49:54;;;;;;;2.47;0.70;;;;;;;;;;5034148;28;20037;-63
2022/11/23 05:52:21;;;;;;;2.40;0.70;;;;;;;;;;5032613;28;20182;-63
2022/11/23 05:54:47;;;;;;;2.22;0.60;;;;;;;;;;5035476;28;20052;-63
2022/11/23 05:57:14;;;;;;;2.75;0.70;;;;;;;;;;5035425;28;20506;-60
2022/11/23 05:59:41;;;;;;;2.67;0.68;;;;;;;;;;5032288;28;20037;-62
2022/11/23 06:02:07;;;;;;;2.45;0.70;;;;;;;;;;5034989;28;20033;-63
2022/11/23 06:04:34;;;;;;;2.30;0.60;;;;;;;;;;5033136;28;20052;-63
2022/11/23 06:07:01;;;;;;;1.95;0.65;;;;;;;;;;5033876;28;20488;-62
2022/11/23 06:09:28;;;;;;;3.05;0.70;;;;;;;;;;5033454;28;20061;-63
2022/11/23 06:11:55;;;;;;;2.28;0.70;;;;;;;;;;5033926;28;20114;-64
2022/11/23 06:14:21;;;;;;;2.58;0.73;;;;;;;;;;5032514;28;20071;-65
2022/11/23 06:16:50;;;;;;;2.25;0.63;;;;;;;;;;5033475;28;20053;-62
2022/11/23 06:19:17;;;;;;;1.92;0.75;;;;;;;;;;5034592;28;20397;-64
2022/11/23 06:21:43;;;;;;;2.58;0.80;;;;;;;;;;5013338;28;20029;-62
2022/11/23 06:24:10;;;;;;;3.63;0.90;;;;;;;;;;5013663;28;20061;-63
2022/11/23 06:26:37;;;;;;;2.47;0.80;;;;;;;;;;5012274;28;20040;-64
2022/11/23 06:29:03;;;;;;;5.53;0.90;;;;;;;;;;5014646;28;20685;-63
2022/11/23 06:31:30;;;;;;;2.10;0.70;;;;;;;;;;5011837;28;20041;-64
2022/11/23 06:33:57;;;;;;;2.17;0.73;;;;;;;;;;5012431;28;20041;-64
2022/11/23 06:36:23;;;;;;;2.20;0.60;;;;;;;;;;5013637;28;20066;-63
2022/11/23 06:38:50;;;;;;;1.98;0.60;;;;;;;;;;5014672;28;20744;-63
2022/11/23 06:41:16;;;;;;;2.05;0.65;;;;;;;;;;5011574;28;20132;-64
2022/11/23 06:43:43;;;;;;;1.52;0.60;;;;;;;;;;5014388;28;20038;-63
2022/11/23 06:46:11;;;;;;;2.03;0.63;;;;;;;;;;5016788;28;20045;-63
2022/11/23 06:48:37;;;;;;;3.25;0.70;;;;;;;;;;5012017;28;20076;-62
2022/11/23 06:51:04;;;;;;;2.03;0.60;;;;;;;;;;5030503;28;20049;-62
2022/11/23 06:53:30;;;;;;;2.38;0.73;;;;;;;;;;5013281;28;20053;-64
2022/11/23 06:56:00;;;;;;;1.60;0.60;;;;;;;;;;5029433;28;20053;-61
2022/11/23 06:58:27;;;;;;;1.98;0.70;;;;;;;;;;5028423;28;20111;-64
2022/11/23 07:00:54;;;;;;;5.90;0.77;;;;;;;;;;5015714;28;20038;-62
2022/11/23 07:03:22;;;;;;;2.42;0.70;;;;;;;;;;5030861;28;20036;-63
2022/11/23 07:05:48;;;;;;;2.65;0.70;;;;;;;;;;5031691;28;20749;-63
2022/11/23 07:08:15;;;;;;;1.98;0.60;;;;;;;;;;5033081;28;20045;-63
2022/11/23 07:10:41;;;;;;;2.08;0.63;;;;;;;;;;5032031;28;20042;-62
2022/11/23 07:13:09;;;;;;;2.00;0.65;;;;;;;;;;5035512;28;20450;-64
2022/11/23 07:15:36;;;;;;;2.20;0.70;;;;;;;;;;5035385;28;20041;-64
2022/11/23 07:18:03;;;;;;;2.70;0.85;;;;;;;;;;5038201;28;20537;-63
2022/11/23 07:20:30;;;;;;;1.38;0.60;;;;;;;;;;5034077;28;20045;-61
2022/11/23 07:23:03;;;;;;;2.65;0.80;;;;;;;;;;5031083;28;20061;-61
2022/11/23 07:25:31;;;;;;;2.20;0.80;;;;;;;;;;5031954;28;20053;-61
2022/11/23 07:27:58;;;;;;;3.38;0.90;;;;;;;;;;5032255;28;20169;-61
2022/11/23 07:30:25;;;;;;;4.40;1.05;;;;;;;;;;5032638;28;20048;-61
2022/11/23 07:32:52;;;;;;;2.80;0.90;;;;;;;;;;5048210;28;20041;-61
2022/11/23 07:35:22;;;;;;;2.38;0.80;;;;;;;;;;5049843;28;20040;-62
2022/11/23 07:37:48;;;;;;;2.38;0.90;;;;;;;;;;5033970;28;20073;-61
2022/11/23 07:40:15;;;;;;;1.95;0.75;;;;;;;;;;5033138;28;20116;-61
2022/11/23 07:42:42;;;;;;;4.00;1.00;;;;;;;;;;5031641;28;20212;-61
2022/11/23 07:45:09;;;;;;;3.50;0.80;;;;;;;;;;5044682;28;20045;-61
2022/11/23 07:47:35;;;;;;;3.10;1.10;;;;;;;;;;5030743;28;20040;-61
2022/11/23 07:50:02;;;;;;;2.83;1.00;;;;;;;;;;5034538;28;20171;-61
2022/11/23 07:52:28;;;;;;;2.90;1.00;;;;;;;;;;5029285;28;20041;-61
2022/11/23 07:54:55;;;;;;;2.03;0.85;;;;;;;;;;5032657;28;20142;-63
2022/11/23 07:57:22;;;;;;;2.55;0.95;;;;;;;;;;5030770;28;20367;-60
2022/11/23 07:59:48;;;;;;;5.28;1.17;;;;;;;;;;5049110;28;20044;-62
2022/11/23 08:02:15;;;;;;;3.80;1.20;;;;;;;;;;5030602;28;20044;-62
2022/11/23 08:04:42;;;;;;;2.65;0.95;;;;;;;;;;5031619;28;20778;-61
2022/11/23 08:07:08;;;;;;;2.75;0.85;;;;;;;;;;5031855;28;20042;-62
2022/11/23 08:09:35;;;;;;;2.63;0.88;;;;;;;;;;5032223;28;20098;-62
2022/11/23 08:12:02;;;;;;;4.05;1.20;;;;;;;;;;5031872;28;20447;-61
2022/11/23 08:14:28;;;;;;;2.38;0.80;;;;;;;;;;5030274;28;20041;-61
2022/11/23 08:16:55;;;;;;;2.65;0.95;;;;;;;;;;5031651;28;20049;-63
2022/11/23 08:19:22;;;;;;;2.47;0.80;;;;;;;;;;5028528;28;22485;-61
2022/11/23 08:21:48;;;;;;;3.15;1.00;;;;;;;;;;5047613;28;20040;-62
2022/11/23 08:24:15;;;;;;;3.15;0.80;;;;;;;;;;5030969;28;20049;-63
2022/11/23 08:26:41;;;;;;;1.77;0.73;;;;;;;;;;5029837;28;20041;-62
2022/11/23 08:29:08;;;;;;;1.98;0.70;;;;;;;;;;5048608;28;20310;-61
2022/11/23 08:31:35;;;;;;;2.95;0.80;;;;;;;;;;5032024;28;20061;-62
2022/11/23 08:34:01;;;;;;;2.42;0.70;;;;;;;;;;5031448;28;20913;-62
2022/11/23 08:36:28;;;;;;;2.25;0.77;;;;;;;;;;5030969;28;20266;-62
2022/11/23 08:38:54;;;;;;;2.72;0.93;;;;;;;;;;5031983;28;20037;-64
2022/11/23 08:41:21;;;;;;;1.75;0.47;;;;;;;;;;5031796;28;20385;-61
2022/11/23 08:43:48;;;;;;;3.03;1.02;;;;;;;;;;5031405;28;20041;-61
2022/11/23 08:46:14;;;;;;;1.98;0.60;;;;;;;;;;5031866;28;20044;-64
2022/11/23 08:48:41;;;;;;;1.27;0.60;;;;;;;;;;5029992;28;20167;-61
2022/11/23 08:51:08;;;;;;;2.80;1.10;;;;;;;;;;5031422;28;20051;-63
2022/11/23 08:53:35;;;;;;;3.42;0.90;;;;;;;;;;5030668;28;20033;-64
2022/11/23 08:56:04;;;;;;;2.28;0.70;;;;;;;;;;5031727;28;20037;-63
2022/11/23 08:58:31;;;;;;;2.85;0.90;;;;;;;;;;5032922;28;20406;-62
2022/11/23 09:00:58;;;;;;;2.67;0.95;;;;;;;;;;5037114;28;20485;-61
2022/11/23 09:03:24;;;;;;;5.53;1.00;;;;;;;;;;5032811;28;20044;-62
2022/11/23 09:05:53;;;;;;;2.28;0.90;;;;;;;;;;5037091;28;20365;-61
2022/11/23 09:08:19;;;;;;;2.58;0.90;;;;;;;;;;5049531;28;20051;-62
2022/11/23 09:10:46;;;;;;;3.38;1.15;;;;;;;;;;5042887;28;20030;-61
2022/11/23 09:13:12;;;;;;;2.78;1.20;;;;;;;;;;5036227;28;20049;-63
2022/11/23 09:15:39;;;;;;;4.03;1.23;;;;;;;;;;5035010;28;20063;-63
2022/11/23 09:18:06;;;;;;;2.50;0.90;;;;;;;;;;5036390;28;20057;-62
2022/11/23 09:20:32;;;;;;;3.00;1.25;;;;;;;;;;5044806;28;20134;-62
2022/11/23 09:22:59;;;;;;;3.10;1.00;;;;;;;;;;5051706;28;20497;-62
2022/11/23 09:25:25;;;;;;;2.80;1.02;;;;;;;;;;5033483;28;20125;-60
2022/11/23 09:27:58;;;;;;;2.47;0.90;;;;;;;;;;5034815;28;20574;-61
2022/11/23 09:30:25;;;;;;;3.17;1.10;;;;;;;;;;5033716;28;20116;-61
2022/11/23 09:32:52;;;;;;;2.58;0.95;;;;;;;;;;5036184;28;20460;-59
2022/11/23 09:35:18;;;;;;;2.03;0.80;;;;;;;;;;5035025;28;20524;-62
2022/11/23 09:37:45;;;;;;;2.05;0.60;;;;;;;;;;5034788;28;20049;-61
2022/11/23 09:40:15;;;;;;;2.58;0.90;;;;;;;;;;5036412;28;20091;-63
2022/11/23 09:42:57;;;;;;;2.83;0.85;;;;;;;;;;5031522;28;20466;-63
2022/11/23 09:45:30;;;;;;;2.33;0.88;;;;;;;;;;5030792;28;20037;-63
2022/11/23 09:48:14;;;;;;;3.25;0.95;;;;;;;;;;5048708;28;20120;-61
2022/11/23 09:50:40;;;;;;;3.50;1.13;;;;;;;;;;5034490;28;20600;-61
2022/11/23 09:53:11;;;;;;;2.17;0.70;;;;;;;;;;5034493;28;20516;-63
2022/11/23 09:55:41;;;;;;;2.35;0.82;;;;;;;;;;5034729;28;20458;-63
2022/11/23 09:58:12;;;;;;;2.95;1.10;;;;;;;;;;5036990;28;20055;-61
2022/11/23 10:00:43;;;;;;;3.60;1.20;;;;;;;;;;5049530;28;20041;-61
2022/11/23 10:03:14;;;;;;;1.92;0.80;;;;;;;;;;5032732;28;20088;-63
2022/11/23 10:05:43;;;;;;;2.97;1.27;;;;;;;;;;5032083;28;20048;-61
2022/11/23 10:08:30;;;;;;;3.33;1.20;;;;;;;;;;5034011;28;20041;-60
2022/11/23 10:11:12;;;;;;;3.38;1.40;;;;;;;;;;4995110;28;20045;-63
2022/11/23 10:13:44;;;;;;;2.95;1.10;;;;;;;;;;5015209;28;20042;-62
2022/11/23 10:16:14;;;;;;;2.63;1.10;;;;;;;;;;5018351;28;20053;-61
2022/11/23 10:18:56;;;;;;;3.67;1.50;;;;;;;;;;5015286;28;20041;-63
2022/11/23 10:21:37;;;;;;;5.25;1.40;;;;;;;;;;5014493;28;20041;-61
2022/11/23 10:24:20;;;;;;;4.90;1.40;;;;;;;;;;5012775;28;21994;-64
2022/11/23 10:26:48;;;;;;;2.92;1.35;;;;;;;;;;5012278;28;20049;-62
2022/11/23 10:29:18;;;;;;;3.30;1.50;;;;;;;;;;5013977;28;20423;-61
2022/11/23 10:31:47;;;;;;;2.75;1.27;;;;;;;;;;5013796;28;20417;-62
2022/11/23 10:34:23;;;;;;;2.40;1.08;;;;;;;;;;5011881;28;20056;-62
2022/11/23 10:36:50;;;;;;;2.95;1.25;;;;;;;;;;5014166;28;20628;-63
2022/11/23 10:39:21;;;;;;;4.88;1.17;;;;;;;;;;5014612;28;20054;-60
2022/11/23 10:41:49;;;;;;;2.65;1.13;;;;;;;;;;5025682;28;20037;-62
2022/11/23 10:44:18;;;;;;;2.50;1.10;;;;;;;;;;5014975;28;20124;-62
2022/11/23 10:46:45;;;;;;;3.55;1.13;;;;;;;;;;5014241;28;20502;-63
2022/11/23 10:49:31;;;;;;;2.20;0.82;;;;;;;;;;5012876;28;20397;-63
2022/11/23 10:52:02;;;;;;;2.47;0.88;;;;;;;;;;5013123;28;20061;-63
2022/11/23 10:54:47;;;;;;;2.75;0.90;;;;;;;;;;5014930;28;20037;-63
2022/11/23 10:57:28;;;;;;;2.70;0.90;;;;;;;;;;5013201;28;20398;-64
2022/11/23 10:59:58;;;;;;;2.10;0.70;;;;;;;;;;5029064;28;20414;-62
2022/11/23 11:02:25;;;;;;;2.08;0.52;;;;;;;;;;5012088;28;20049;-63
2022/11/23 11:05:11;;;;;;;2.03;0.68;;;;;;;;;;5015515;28;20974;-63
2022/11/23 11:07:38;;;;;;;1.48;0.60;;;;;;;;;;5029503;28;20372;-64
2022/11/23 11:10:05;;;;;;;1.52;0.50;;;;;;;;;;5012133;28;20418;-63
2022/11/23 11:12:34;;;;;;;2.75;0.70;;;;;;;;;;5014850;28;20034;-63
2022/11/23 11:15:14;;;;;;;1.90;0.80;;;;;;;;;;5012715;28;20037;-63
2022/11/23 11:17:41;;;;;;;2.70;0.80;;;;;;;;;;5011895;28;20182;-64
2022/11/23 11:20:25;;;;;;;2.65;0.77;;;;;;;;;;5011242;28;20046;-62
2022/11/23 11:22:52;;;;;;;2.42;0.82;;;;;;;;;;5028273;28;20123;-63
2022/11/23 11:25:32;;;;;;;1.70;0.68;;;;;;;;;;5011134;28;20526;-65
2022/11/23 11:27:59;;;;;;;2.47;0.90;;;;;;;;;;5013511;28;20521;-63
2022/11/23 11:30:30;;;;;;;2.20;0.80;;;;;;;;;;5011045;28;20985;-63
2022/11/23 11:33:11;;;;;;;2.50;0.90;;;;;;;;;;5013045;28;20434;-62
2022/11/23 11:35:42;;;;;;;2.38;0.88;;;;;;;;;;5012802;28;20119;-66
2022/11/23 11:38:15;;;;;;;2.58;0.90;;;;;;;;;;5013523;28;20049;-62
2022/11/23 11:40:49;;;;;;;2.60;0.95;;;;;;;;;;5013501;28;20053;-63
2022/11/23 11:43:39;;;;;;;1.33;0.52;;;;;;;;;;5012410;28;20072;-62
2022/11/23 11:46:16;;;;;;;2.45;0.70;;;;;;;;;;5009125;28;21040;-65
2022/11/23 11:48:42;;;;;;;2.85;0.82;;;;;;;;;;5012577;28;20078;-63
2022/11/23 11:51:13;;;;;;;4.78;0.80;;;;;;;;;;5012550;28;20065;-63
2022/11/23 11:53:48;;;;;;;2.10;0.70;;;;;;;;;;5011615;28;20045;-60
2022/11/23 11:56:18;;;;;;;2.50;1.00;;;;;;;;;;5013957;28;20089;-60
2022/11/23 11:58:51;;;;;;;2.30;0.60;;;;;;;;;;5012367;28;20052;-63
2022/11/23 12:01:25;;;;;;;1.75;0.70;;;;;;;;;;5011659;28;21405;-62
2022/11/23 12:03:55;;;;;;;3.05;0.90;;;;;;;;;;5026677;28;20033;-61
2022/11/23 12:06:28;;;;;;;2.80;0.90;;;;;;;;;;5014260;28;20069;-63
2022/11/23 12:09:09;;;;;;;2.58;0.90;;;;;;;;;;5012137;28;21729;-58
2022/11/23 12:11:36;;;;;;;2.60;0.80;;;;;;;;;;5011111;28;20033;-62
2022/11/23 12:14:04;;;;;;;2.55;0.95;;;;;;;;;;5011149;28;20040;-58
2022/11/23 12:16:46;;;;;;;3.10;0.98;;;;;;;;;;5009594;28;20151;-60
2022/11/23 12:19:15;;;;;;;3.45;0.88;;;;;;;;;;5011924;28;20377;-60
2022/11/23 12:21:42;;;;;;;2.90;0.90;;;;;;;;;;5025750;28;20078;-62
2022/11/23 12:24:18;;;;;;;3.42;0.95;;;;;;;;;;5012438;28;20040;-61
2022/11/23 12:26:48;;;;;;;3.60;1.05;;;;;;;;;;5020874;28;20555;-60
2022/11/23 12:29:15;;;;;;;2.50;0.90;;;;;;;;;;5029714;28;20048;-59
2022/11/23 12:31:42;;;;;;;2.50;0.98;;;;;;;;;;5030059;28;20055;-60
2022/11/23 12:34:27;;;;;;;2.17;0.80;;;;;;;;;;5029868;28;20077;-63
2022/11/23 12:37:08;;;;;;;3.60;1.00;;;;;;;;;;5013237;28;20052;-60
2022/11/23 12:39:38;;;;;;;2.72;1.00;;;;;;;;;;5004188;28;20065;-59
2022/11/23 12:42:04;;;;;;;2.78;0.93;;;;;;;;;;5003619;28;20042;-62
2022/11/23 12:44:43;;;;;;;2.70;1.02;;;;;;;;;;5019787;28;20038;-62
2022/11/23 12:47:22;;;;;;;2.80;1.00;;;;;;;;;;5002124;28;20050;-62
2022/11/23 12:50:09;;;;;;;2.78;1.10;;;;;;;;;;5021601;28;20037;-60
2022/11/23 12:52:35;;;;;;;4.63;1.30;;;;;;;;;;5028602;28;20044;-57
2022/11/23 12:55:17;;;;;;;3.15;1.20;;;;;;;;;;5029819;28;20144;-59
2022/11/23 12:57:49;;;;;;;3.10;1.25;;;;;;;;;;5018322;28;20526;-60
2022/11/23 13:00:20;;;;;;;2.85;1.10;;;;;;;;;;5011233;28;20121;-60
2022/11/23 13:02:49;;;;;;;3.20;1.17;;;;;;;;;;5009443;28;20112;-62
2022/11/23 13:05:31;;;;;;;3.00;1.35;;;;;;;;;;5013690;28;20065;-60
2022/11/23 13:08:18;;;;;;;2.50;1.10;;;;;;;;;;5010038;28;20132;-59
2022/11/23 13:10:53;;;;;;;2.95;1.13;;;;;;;;;;5012749;28;20068;-60
2022/11/23 13:13:27;;;;;;;2.20;0.90;;;;;;;;;;5009539;28;20133;-58
2022/11/23 13:16:08;;;;;;;4.15;1.25;;;;;;;;;;5011536;28;20781;-60
2022/11/23 13:18:38;;;;;;;2.92;1.20;;;;;;;;;;5010048;28;20045;-60
2022/11/23 13:21:08;;;;;;;2.95;1.15;;;;;;;;;;5012995;28;20268;-58
2022/11/23 13:23:38;;;;;;;4.63;1.20;;;;;;;;;;5012701;28;20486;-59
2022/11/23 13:26:24;;;;;;;2.97;1.15;;;;;;;;;;5012169;28;20061;-62
2022/11/23 13:28:52;;;;;;;2.80;1.05;;;;;;;;;;5012421;28;20037;-60
2022/11/23 13:31:18;;;;;;;2.65;0.95;;;;;;;;;;5010225;28;20034;-66
2022/11/23 13:33:46;;;;;;;2.80;0.98;;;;;;;;;;5014645;28;20042;-60
2022/11/23 13:36:32;;;;;;;3.40;1.23;;;;;;;;;;5011893;28;20068;-59
2022/11/23 13:39:02;;;;;;;3.67;1.20;;;;;;;;;;5014399;28;20056;-60
2022/11/23 13:41:35;;;;;;;8.07;1.40;;;;;;;;;;5016955;28;20938;-59
2022/11/23 13:44:20;;;;;;;8.53;1.70;;;;;;;;;;5019309;28;20185;-60
2022/11/23 13:47:05;;;;;;;3.58;1.35;;;;;;;;;;5014507;28;20517;-61
2022/11/23 13:49:34;;;;;;;7.80;1.50;;;;;;;;;;5015366;28;20396;-58
2022/11/23 13:52:19;;;;;;;7.32;1.70;;;;;;;;;;5015418;28;20042;-59
2022/11/23 13:55:03;;;;;;;5.05;1.35;;;;;;;;;;5016727;28;20495;-60
2022/11/23 13:57:30;;;;;;;4.30;1.50;;;;;;;;;;5029000;28;20658;-60
2022/11/23 14:00:20;;;;;;;7.47;1.42;;;;;;;;;;5015247;28;20175;-59
2022/11/23 14:02:46;;;;;;;3.83;1.30;;;;;;;;;;5005932;28;20498;-57
2022/11/23 14:05:51;;;;;;;3.60;1.30;;;;;;;;;;5017828;28;20045;-61
2022/11/23 14:08:18;;;;;;;3.10;1.30;;;;;;;;;;5029513;28;20036;-61
2022/11/23 14:10:45;;;;;;;2.97;1.10;;;;;;;;;;5035251;28;20056;-60
2022/11/23 14:13:16;;;;;;;4.80;1.10;;;;;;;;;;5033768;28;20041;-61
2022/11/23 14:15:45;;;;;;;4.32;1.27;;;;;;;;;;5037235;28;20135;-62
2022/11/23 14:18:29;;;;;;;3.53;1.23;;;;;;;;;;5045874;28;20052;-62
2022/11/23 14:21:04;;;;;;;6.93;1.25;;;;;;;;;;5035271;28;20128;-61
2022/11/23 14:23:46;;;;;;;3.20;1.02;;;;;;;;;;5048940;28;20061;-61
2022/11/23 14:26:19;;;;;;;3.33;1.25;;;;;;;;;;5050409;28;20084;-61
2022/11/23 14:29:02;;;;;;;4.70;1.27;;;;;;;;;;5021299;28;20102;-63
2022/11/23 14:31:47;;;;;;;3.85;1.10;;;;;;;;;;5032854;28;20040;-61
2022/11/23 14:34:33;;;;;;;4.68;1.30;;;;;;;;;;5048932;28;20037;-62
2022/11/23 14:37:15;;;;;;;5.30;1.20;;;;;;;;;;5048249;28;20494;-60
2022/11/23 14:40:01;;;;;;;3.47;1.30;;;;;;;;;;5033904;28;20041;-60
2022/11/23 14:42:29;;;;;;;4.40;1.70;;;;;;;;;;5031485;28;21002;-62
2022/11/23 14:44:56;;;;;;;3.20;1.42;;;;;;;;;;5034902;28;20041;-60
2022/11/23 14:47:40;;;;;;;5.90;1.42;;;;;;;;;;5047266;28;20052;-62
2022/11/23 14:50:20;;;;;;;5.15;1.50;;;;;;;;;;5036367;28;20048;-60
2022/11/23 14:52:47;;;;;;;7.38;1.20;;;;;;;;;;5017026;28;20072;-63
2022/11/23 14:55:22;;;;;;;3.42;1.20;;;;;;;;;;5026838;28;20131;-60
2022/11/23 14:57:52;;;;;;;3.35;1.20;;;;;;;;;;5010863;28;20393;-63